createdAt,value
2023-01-13T00:00:30.292Z,8.20
2023-01-13T00:02:58.139Z,8.20
2023-01-13T00:05:26.621Z,8.20
2023-01-13T00:07:54.438Z,8.20
2023-01-13T00:10:22.223Z,8.20
2023-01-13T00:12:49.993Z,8.30
2023-01-13T00:15:19.423Z,8.30
2023-01-13T00:17:48.485Z,8.30
2023-01-13T00:20:16.828Z,8.30
2023-01-13T00:22:44.720Z,8.30
2023-01-13T00:25:12.847Z,8.30
2023-01-13T00:27:40.861Z,8.30
2023-01-13T00:30:09.977Z,8.30
2023-01-13T00:32:39.154Z,8.30
2023-01-13T00:35:08.015Z,8.30
2023-01-13T00:37:37.943Z,8.30
2023-01-13T00:40:06.666Z,8.30
2023-01-13T00:42:52.123Z,8.30
2023-01-13T00:45:19.886Z,8.30
2023-01-13T00:47:49.061Z,8.30
2023-01-13T00:50:17.422Z,8.20
2023-01-13T00:52:45.200Z,8.20
2023-01-13T00:55:12.970Z,8.20
2023-01-13T00:57:41.153Z,8.20
2023-01-13T01:00:10.310Z,8.30
2023-01-13T01:02:38.120Z,8.30
2023-01-13T01:05:08.289Z,8.30
2023-01-13T01:07:36.154Z,8.40
2023-01-13T01:10:04.384Z,8.40
2023-01-13T01:12:32.199Z,8.40
2023-01-13T01:14:59.997Z,8.50
2023-01-13T01:17:29.391Z,8.50
2023-01-13T01:19:57.237Z,8.50
2023-01-13T01:22:26.458Z,8.60
2023-01-13T01:24:54.257Z,8.50
2023-01-13T01:27:22.207Z,8.50
2023-01-13T01:29:49.976Z,8.50
2023-01-13T01:32:17.761Z,8.50
2023-01-13T01:34:45.602Z,8.50
2023-01-13T01:37:13.420Z,8.50
2023-01-13T01:39:42.569Z,8.50
2023-01-13T01:42:33.741Z,8.50
2023-01-13T01:45:03.784Z,8.50
2023-01-13T01:47:33.291Z,8.50
2023-01-13T01:50:03.992Z,8.50
2023-01-13T01:52:35.807Z,8.50
2023-01-13T01:55:09.517Z,8.60
2023-01-13T01:57:41.903Z,8.50
2023-01-13T02:00:11.046Z,8.50
2023-01-13T02:02:39.658Z,8.60
2023-01-13T02:05:08.334Z,8.60
2023-01-13T02:07:39.478Z,8.60
2023-01-13T02:10:12.937Z,8.60
2023-01-13T02:12:43.746Z,8.50
2023-01-13T02:15:13.930Z,8.50
2023-01-13T02:18:03.075Z,8.50
2023-01-13T02:20:53.137Z,8.60
2023-01-13T02:24:13.827Z,8.60
2023-01-13T02:27:20.077Z,8.50
2023-01-13T02:30:20.483Z,8.50
2023-01-13T02:32:59.776Z,8.60
2023-01-13T02:35:34.386Z,8.60
2023-01-13T02:38:03.915Z,8.60
2023-01-13T02:40:38.027Z,8.60
2023-01-13T02:43:31.772Z,8.60
2023-01-13T02:46:06.020Z,8.60
2023-01-13T02:48:36.476Z,8.50
2023-01-13T02:51:09.267Z,8.60
2023-01-13T02:53:40.953Z,8.60
2023-01-13T02:56:10.798Z,8.60
2023-01-13T02:58:41.177Z,8.70
2023-01-13T03:01:10.499Z,8.70
2023-01-13T03:03:38.361Z,8.60
2023-01-13T03:06:22.321Z,8.60
2023-01-13T03:08:53.962Z,8.70
2023-01-13T03:11:27.021Z,8.60
2023-01-13T03:14:18.120Z,8.60
2023-01-13T03:16:57.592Z,8.70
2023-01-13T03:19:38.124Z,8.60
2023-01-13T03:22:16.051Z,8.70
2023-01-13T03:24:48.557Z,8.70
2023-01-13T03:27:23.234Z,8.80
2023-01-13T03:29:55.712Z,8.90
2023-01-13T03:32:28.619Z,8.80
2023-01-13T03:34:59.917Z,8.90
2023-01-13T03:37:33.776Z,8.90
2023-01-13T03:40:07.094Z,8.90
2023-01-13T03:42:37.866Z,8.90
2023-01-13T03:45:10.412Z,9.00
2023-01-13T03:47:43.811Z,9.00
2023-01-13T03:50:16.427Z,9.10
2023-01-13T03:52:48.376Z,9.10
2023-01-13T03:55:19.299Z,9.10
2023-01-13T03:57:51.881Z,9.10
2023-01-13T04:00:22.939Z,9.20
2023-01-13T04:02:57.860Z,9.20
2023-01-13T04:05:26.693Z,9.30
2023-01-13T04:08:02.011Z,9.20
2023-01-13T04:10:33.586Z,9.20
2023-01-13T04:13:06.070Z,9.30
2023-01-13T04:15:37.321Z,9.40
2023-01-13T04:18:15.977Z,9.40
2023-01-13T04:20:45.339Z,9.40
2023-01-13T04:23:13.756Z,9.50
2023-01-13T04:25:42.078Z,9.50
2023-01-13T04:28:10.828Z,9.40
2023-01-13T04:30:38.940Z,9.40
2023-01-13T04:33:07.364Z,9.40
2023-01-13T04:35:37.628Z,9.40
2023-01-13T04:38:06.971Z,9.40
2023-01-13T04:40:34.872Z,9.50
2023-01-13T04:43:02.813Z,9.50
2023-01-13T04:45:30.683Z,9.50
2023-01-13T04:47:58.624Z,9.40
2023-01-13T04:50:26.977Z,9.50
2023-01-13T04:52:57.455Z,9.50
2023-01-13T04:55:26.139Z,9.50
2023-01-13T04:57:54.477Z,9.40
2023-01-13T05:00:23.952Z,9.50
2023-01-13T05:02:52.356Z,9.50
2023-01-13T05:05:20.365Z,9.60
2023-01-13T05:07:48.165Z,9.50
2023-01-13T05:10:18.019Z,9.50
2023-01-13T05:13:04.220Z,9.50
2023-01-13T05:15:49.850Z,9.60
2023-01-13T05:18:19.154Z,9.60
2023-01-13T05:20:46.909Z,9.70
2023-01-13T05:23:32.226Z,9.70
2023-01-13T05:26:01.519Z,9.70
2023-01-13T05:28:32.583Z,9.70
2023-01-13T05:31:00.740Z,9.70
2023-01-13T05:33:28.609Z,9.70
2023-01-13T05:35:56.393Z,9.70
2023-01-13T05:38:24.169Z,9.70
2023-01-13T05:41:09.324Z,9.80
2023-01-13T05:43:38.464Z,9.80
2023-01-13T05:46:07.982Z,9.80
2023-01-13T05:48:38.317Z,9.80
2023-01-13T05:51:08.698Z,9.80
2023-01-13T05:53:37.222Z,9.80
2023-01-13T05:56:06.960Z,9.80
2023-01-13T05:58:35.170Z,9.80
2023-01-13T06:01:08.108Z,9.80
2023-01-13T06:03:37.173Z,9.80
2023-01-13T06:06:08.715Z,9.80
2023-01-13T06:08:39.306Z,9.80
2023-01-13T06:11:07.535Z,9.80
2023-01-13T06:13:35.379Z,9.80
2023-01-13T06:16:04.869Z,9.80
2023-01-13T06:18:32.692Z,9.70
2023-01-13T06:21:00.487Z,9.80
2023-01-13T06:23:29.112Z,9.80
2023-01-13T06:26:05.076Z,9.80
2023-01-13T06:28:33.188Z,9.80
2023-01-13T06:31:04.152Z,9.80
2023-01-13T06:33:36.258Z,9.90
2023-01-13T06:36:08.457Z,9.80
2023-01-13T06:38:39.248Z,9.80
2023-01-13T06:41:08.850Z,9.80
2023-01-13T06:43:35.855Z,9.80
2023-01-13T06:46:04.577Z,9.80
2023-01-13T06:48:35.482Z,9.70
2023-01-13T06:51:04.183Z,9.70
2023-01-13T06:53:32.340Z,9.60
2023-01-13T06:56:00.156Z,9.70
2023-01-13T06:58:28.287Z,9.60
2023-01-13T07:01:00.312Z,9.50
2023-01-13T07:03:28.275Z,9.50
2023-01-13T07:05:58.623Z,9.50
2023-01-13T07:08:26.543Z,9.50
2023-01-13T07:10:54.512Z,9.50
2023-01-13T07:13:40.092Z,9.50
2023-01-13T07:16:09.888Z,9.60
2023-01-13T07:18:38.074Z,9.60
2023-01-13T07:21:08.604Z,9.60
2023-01-13T07:23:37.876Z,9.60
2023-01-13T07:26:06.712Z,9.60
2023-01-13T07:28:35.182Z,9.50
2023-01-13T07:31:03.853Z,9.60
2023-01-13T07:33:32.910Z,9.60
2023-01-13T07:36:02.193Z,9.60
2023-01-13T07:38:32.065Z,9.60
2023-01-13T07:41:20.725Z,9.60
2023-01-13T07:43:47.690Z,9.60
2023-01-13T07:46:15.816Z,9.60
2023-01-13T07:48:44.006Z,9.60
2023-01-13T07:51:13.253Z,9.70
2023-01-13T07:53:42.428Z,9.70
2023-01-13T07:56:10.387Z,9.70
2023-01-13T07:58:38.914Z,9.70
2023-01-13T08:01:10.469Z,9.80
2023-01-13T08:03:38.482Z,9.80
2023-01-13T08:06:06.975Z,9.90
2023-01-13T08:08:34.777Z,9.80
2023-01-13T08:11:05.427Z,9.90
2023-01-13T08:13:33.539Z,9.90
2023-01-13T08:16:03.269Z,9.80
2023-01-13T08:18:32.318Z,9.80
2023-01-13T08:21:04.467Z,9.90
2023-01-13T08:23:32.334Z,9.90
2023-01-13T08:26:03.523Z,9.90
2023-01-13T08:28:32.060Z,9.90
2023-01-13T08:31:04.108Z,10.00
2023-01-13T08:33:32.699Z,10.10
2023-01-13T08:36:05.031Z,10.10
2023-01-13T08:38:34.397Z,10.10
2023-01-13T08:41:10.176Z,10.10
2023-01-13T08:43:38.073Z,10.10
2023-01-13T08:46:06.242Z,10.20
2023-01-13T08:48:34.090Z,10.20
2023-01-13T08:51:06.955Z,10.20
2023-01-13T08:53:35.038Z,10.20
2023-01-13T08:56:08.323Z,10.20
2023-01-13T08:58:36.152Z,10.30
2023-01-13T09:01:06.308Z,10.30
2023-01-13T09:03:34.333Z,10.30
2023-01-13T09:06:02.347Z,10.30
2023-01-13T09:08:30.207Z,10.40
2023-01-13T09:10:58.484Z,10.40
2023-01-13T09:13:26.739Z,10.40
2023-01-13T09:15:56.639Z,10.40
2023-01-13T09:18:24.773Z,10.50
2023-01-13T09:20:52.650Z,10.50
2023-01-13T09:23:20.421Z,10.60
2023-01-13T09:25:49.127Z,10.60
2023-01-13T09:28:17.081Z,10.60
2023-01-13T09:30:46.337Z,10.70
2023-01-13T09:33:31.731Z,10.70
2023-01-13T09:36:00.993Z,10.80
2023-01-13T09:38:29.078Z,10.80
2023-01-13T09:40:57.340Z,10.80
2023-01-13T09:43:47.549Z,10.90
2023-01-13T09:46:38.723Z,10.90
2023-01-13T09:49:07.934Z,10.90
2023-01-13T09:51:42.642Z,11.10
2023-01-13T09:54:18.702Z,11.00
2023-01-13T09:56:46.741Z,11.10
2023-01-13T09:59:16.121Z,11.10
2023-01-13T10:01:57.335Z,11.20
2023-01-13T10:04:25.245Z,11.20
2023-01-13T10:06:56.469Z,11.20
2023-01-13T10:09:28.904Z,11.20
2023-01-13T10:12:18.195Z,11.20
2023-01-13T10:14:52.634Z,11.10
2023-01-13T10:17:30.953Z,11.10
2023-01-13T10:20:06.259Z,11.10
2023-01-13T10:22:47.259Z,11.10
2023-01-13T10:25:25.628Z,11.10
2023-01-13T10:27:56.863Z,11.20
2023-01-13T10:30:31.401Z,11.20
2023-01-13T10:33:02.322Z,11.30
2023-01-13T10:35:50.489Z,11.30
2023-01-13T10:38:20.536Z,11.50
2023-01-13T10:40:50.594Z,11.60
2023-01-13T10:43:18.657Z,11.70
2023-01-13T10:45:57.574Z,11.90
2023-01-13T10:48:35.341Z,12.10
2023-01-13T10:51:13.165Z,12.00
2023-01-13T10:53:51.921Z,12.10
2023-01-13T10:56:21.542Z,11.90
2023-01-13T10:58:49.375Z,11.80
2023-01-13T11:01:28.103Z,11.80
2023-01-13T11:03:57.575Z,11.80
2023-01-13T11:06:27.735Z,11.90
2023-01-13T11:08:58.264Z,11.90
2023-01-13T11:11:42.679Z,11.90
2023-01-13T11:14:36.187Z,11.90
2023-01-13T11:17:22.350Z,11.80
2023-01-13T11:19:56.185Z,11.60
2023-01-13T11:22:28.355Z,11.50
2023-01-13T11:25:01.321Z,11.30
2023-01-13T11:27:41.153Z,11.30
2023-01-13T11:30:21.139Z,11.20
2023-01-13T11:33:03.058Z,11.30
2023-01-13T11:35:36.243Z,11.50
2023-01-13T11:38:13.542Z,11.50
2023-01-13T11:40:44.775Z,11.50
2023-01-13T11:43:19.745Z,11.40
2023-01-13T11:45:53.527Z,11.40
2023-01-13T11:48:26.837Z,11.40
2023-01-13T11:51:03.752Z,11.40
2023-01-13T11:53:54.798Z,11.40
2023-01-13T11:56:36.469Z,11.30
2023-01-13T11:59:25.223Z,11.40
2023-01-13T12:02:12.704Z,11.40
2023-01-13T12:04:50.245Z,11.40
2023-01-13T12:07:28.355Z,11.40
2023-01-13T12:10:12.268Z,11.40
2023-01-13T12:12:51.473Z,11.40
2023-01-13T12:15:55.209Z,11.50
2023-01-13T12:18:43.761Z,11.40
2023-01-13T12:21:20.699Z,11.50
2023-01-13T12:23:59.079Z,11.40
2023-01-13T12:26:28.099Z,11.40
2023-01-13T12:28:59.936Z,11.30
2023-01-13T12:31:29.379Z,11.00
2023-01-13T12:34:08.687Z,11.00
2023-01-13T12:36:55.214Z,10.90
2023-01-13T12:39:31.077Z,10.90
2023-01-13T12:42:19.553Z,10.90
2023-01-13T12:45:07.184Z,10.90
2023-01-13T12:47:37.349Z,11.00
2023-01-13T12:50:40.697Z,11.00
2023-01-13T12:53:34.881Z,11.00
2023-01-13T12:56:23.764Z,10.80
2023-01-13T12:58:51.722Z,10.70
2023-01-13T13:01:21.148Z,10.50
2023-01-13T13:04:11.379Z,10.30
2023-01-13T13:06:41.970Z,10.20
2023-01-13T13:09:22.037Z,10.20
2023-01-13T13:12:08.897Z,10.20
2023-01-13T13:15:03.913Z,10.20
2023-01-13T13:17:44.268Z,10.20
2023-01-13T13:20:54.308Z,10.30
2023-01-13T13:23:58.608Z,10.30
2023-01-13T13:26:31.986Z,10.30
2023-01-13T13:29:32.733Z,10.20
2023-01-13T13:32:38.291Z,10.30
2023-01-13T13:35:27.718Z,10.50
2023-01-13T13:38:28.828Z,10.40
2023-01-13T13:41:13.499Z,10.50
2023-01-13T13:44:00.896Z,10.60
2023-01-13T13:46:48.978Z,10.60
2023-01-13T13:49:20.969Z,10.50
2023-01-13T13:51:57.774Z,10.50
2023-01-13T13:54:26.023Z,10.40
2023-01-13T13:56:54.520Z,10.50
2023-01-13T13:59:25.265Z,10.50
2023-01-13T14:02:01.521Z,10.40
2023-01-13T14:04:33.520Z,10.30
2023-01-13T14:07:04.789Z,10.20
2023-01-13T14:09:42.399Z,10.20
2023-01-13T14:12:18.884Z,9.00
2023-01-13T14:14:47.748Z,7.50
2023-01-13T14:17:23.142Z,6.70
2023-01-13T14:19:58.940Z,6.20
2023-01-13T14:22:27.033Z,6.00
2023-01-13T14:24:57.584Z,5.90
2023-01-13T14:27:27.528Z,5.90
2023-01-13T14:29:58.060Z,5.80
2023-01-13T14:32:34.079Z,5.90
2023-01-13T14:35:06.344Z,5.80
2023-01-13T14:37:37.563Z,5.90
2023-01-13T14:40:06.134Z,5.80
2023-01-13T14:42:35.301Z,5.90
2023-01-13T14:45:04.024Z,5.90
2023-01-13T14:47:33.970Z,6.00
2023-01-13T14:50:08.176Z,6.00
2023-01-13T14:52:38.173Z,6.10
2023-01-13T14:55:25.190Z,6.10
2023-01-13T14:57:53.149Z,6.20
2023-01-13T15:00:23.811Z,6.10
2023-01-13T15:03:02.019Z,6.20
2023-01-13T15:05:47.105Z,6.30
2023-01-13T15:08:32.339Z,6.30
2023-01-13T15:11:03.646Z,6.30
2023-01-13T15:13:37.355Z,6.40
2023-01-13T15:16:07.880Z,6.30
2023-01-13T15:18:39.852Z,6.20
2023-01-13T15:21:09.691Z,6.20
2023-01-13T15:23:39.817Z,6.30
2023-01-13T15:26:17.762Z,6.20
2023-01-13T15:28:45.729Z,6.10
2023-01-13T15:31:13.635Z,6.20
2023-01-13T15:33:41.697Z,6.20
2023-01-13T15:36:24.146Z,6.10
2023-01-13T15:38:52.128Z,6.10
2023-01-13T15:41:40.689Z,6.10
2023-01-13T15:44:27.703Z,6.10
2023-01-13T15:46:56.187Z,6.10
2023-01-13T15:49:28.290Z,6.10
2023-01-13T15:51:57.590Z,6.10
2023-01-13T15:54:25.464Z,5.90
2023-01-13T15:56:54.598Z,5.90
2023-01-13T15:59:25.141Z,5.90
2023-01-13T16:01:53.048Z,5.80
2023-01-13T16:04:20.951Z,5.80
2023-01-13T16:06:48.753Z,5.70
2023-01-13T16:09:17.943Z,5.60
2023-01-13T16:11:45.782Z,5.50
2023-01-13T16:14:13.665Z,5.60
2023-01-13T16:16:41.617Z,5.60
2023-01-13T16:19:12.416Z,5.70
2023-01-13T16:21:40.465Z,5.70
2023-01-13T16:24:08.361Z,5.60
2023-01-13T16:26:38.893Z,5.60
2023-01-13T16:29:07.488Z,5.70
2023-01-13T16:31:36.087Z,5.80
2023-01-13T16:34:07.951Z,5.80
2023-01-13T16:36:36.882Z,5.80
2023-01-13T16:39:05.875Z,5.90
2023-01-13T16:41:35.599Z,5.90
2023-01-13T16:44:05.981Z,6.00
2023-01-13T16:46:34.670Z,6.00
2023-01-13T16:49:04.669Z,6.10
2023-01-13T16:51:33.225Z,6.20
2023-01-13T16:54:01.105Z,6.20
2023-01-13T16:56:31.062Z,6.20
2023-01-13T16:59:02.395Z,6.30
2023-01-13T17:01:35.077Z,6.30
2023-01-13T17:04:03.019Z,6.30
2023-01-13T17:06:36.506Z,6.30
2023-01-13T17:09:07.035Z,6.40
2023-01-13T17:11:35.149Z,6.40
2023-01-13T17:14:19.215Z,6.50
2023-01-13T17:16:48.946Z,6.50
2023-01-13T17:19:18.172Z,6.50
2023-01-13T17:21:46.954Z,6.50
2023-01-13T17:24:15.240Z,6.60
2023-01-13T17:26:47.100Z,6.50
2023-01-13T17:29:17.110Z,6.50
2023-01-13T17:31:45.115Z,6.50
2023-01-13T17:34:14.890Z,6.50
2023-01-13T17:36:44.562Z,6.50
2023-01-13T17:39:17.128Z,6.50
2023-01-13T17:41:45.442Z,6.50
2023-01-13T17:44:15.075Z,6.50
2023-01-13T17:46:43.266Z,6.50
2023-01-13T17:49:11.847Z,6.40
2023-01-13T17:51:41.089Z,6.30
2023-01-13T17:54:12.455Z,6.30
2023-01-13T17:56:40.538Z,6.20
2023-01-13T17:59:10.214Z,6.10
2023-01-13T18:01:39.082Z,6.00
2023-01-13T18:04:07.523Z,6.10
2023-01-13T18:06:35.597Z,6.10
2023-01-13T18:09:04.862Z,6.20
2023-01-13T18:11:32.781Z,6.20
2023-01-13T18:14:01.124Z,6.20
2023-01-13T18:16:30.918Z,6.20
2023-01-13T18:19:20.059Z,6.30
2023-01-13T18:22:06.589Z,6.30
2023-01-13T18:24:53.601Z,6.40
2023-01-13T18:27:26.492Z,6.40
2023-01-13T18:29:55.892Z,6.40
2023-01-13T18:32:26.312Z,6.40
2023-01-13T18:35:05.123Z,6.50
2023-01-13T18:37:35.711Z,6.50
2023-01-13T18:40:06.590Z,6.50
2023-01-13T18:42:51.792Z,6.50
2023-01-13T18:45:20.363Z,6.50
2023-01-13T18:47:48.329Z,6.60
2023-01-13T18:50:17.372Z,6.60
2023-01-13T18:52:45.224Z,6.70
2023-01-13T18:55:14.665Z,6.70
2023-01-13T18:57:42.945Z,6.70
2023-01-13T19:00:13.024Z,6.60
2023-01-13T19:02:41.545Z,6.70
2023-01-13T19:05:10.149Z,6.70
2023-01-13T19:07:38.120Z,6.60
2023-01-13T19:10:09.489Z,6.60
2023-01-13T19:12:38.750Z,6.60
2023-01-13T19:15:07.674Z,6.60
2023-01-13T19:17:36.133Z,6.40
2023-01-13T19:20:05.167Z,6.40
2023-01-13T19:22:34.855Z,6.40
2023-01-13T19:25:04.338Z,6.40
2023-01-13T19:27:32.953Z,6.30
2023-01-13T19:30:02.647Z,6.30
2023-01-13T19:32:34.011Z,6.20
2023-01-13T19:35:01.830Z,6.30
2023-01-13T19:37:31.383Z,6.10
2023-01-13T19:40:00.331Z,6.10
2023-01-13T19:42:46.028Z,6.10
2023-01-13T19:45:30.505Z,6.00
2023-01-13T19:48:00.762Z,6.10
2023-01-13T19:50:29.217Z,6.10
2023-01-13T19:52:57.057Z,6.10
2023-01-13T19:55:25.514Z,6.10
2023-01-13T19:57:53.428Z,6.10
2023-01-13T20:00:23.709Z,6.20
2023-01-13T20:02:53.051Z,6.20
2023-01-13T20:05:25.543Z,6.10
2023-01-13T20:07:53.856Z,6.20
2023-01-13T20:10:23.362Z,6.20
2023-01-13T20:12:51.664Z,6.20
2023-01-13T20:15:19.641Z,6.10
2023-01-13T20:17:48.938Z,6.20
2023-01-13T20:20:18.569Z,6.20
2023-01-13T20:22:46.370Z,6.30
2023-01-13T20:25:16.877Z,6.30
2023-01-13T20:27:45.276Z,6.30
2023-01-13T20:30:14.435Z,6.30
2023-01-13T20:32:43.143Z,6.10
2023-01-13T20:35:12.772Z,6.00
2023-01-13T20:37:41.704Z,5.90
2023-01-13T20:40:11.778Z,5.60
2023-01-13T20:42:45.393Z,5.50
2023-01-13T20:45:17.284Z,5.50
2023-01-13T20:47:46.466Z,5.40
2023-01-13T20:50:16.626Z,5.30
2023-01-13T20:52:44.702Z,5.20
2023-01-13T20:55:13.154Z,5.10
2023-01-13T20:57:41.212Z,5.20
2023-01-13T21:00:11.286Z,5.20
2023-01-13T21:02:41.650Z,5.10
2023-01-13T21:05:10.027Z,5.10
2023-01-13T21:07:39.211Z,5.20
2023-01-13T21:10:07.893Z,5.20
2023-01-13T21:12:53.278Z,5.30
2023-01-13T21:15:22.047Z,5.30
2023-01-13T21:18:09.296Z,5.20
2023-01-13T21:20:39.309Z,5.20
2023-01-13T21:23:10.627Z,5.10
2023-01-13T21:25:39.625Z,5.10
2023-01-13T21:28:09.402Z,5.20
2023-01-13T21:30:38.165Z,5.10
2023-01-13T21:33:06.293Z,5.00
2023-01-13T21:35:34.687Z,5.10
2023-01-13T21:38:02.570Z,5.10
2023-01-13T21:40:31.797Z,5.10
2023-01-13T21:43:16.999Z,5.10
2023-01-13T21:46:04.738Z,5.00
2023-01-13T21:48:33.259Z,5.00
2023-01-13T21:51:01.895Z,4.90
2023-01-13T21:53:29.740Z,4.80
2023-01-13T21:55:59.005Z,4.80
2023-01-13T21:58:26.868Z,4.90
2023-01-13T22:00:55.018Z,4.80
2023-01-13T22:03:23.015Z,4.70
2023-01-13T22:05:55.443Z,4.60
2023-01-13T22:08:23.220Z,4.60
2023-01-13T22:10:57.249Z,4.50
2023-01-13T22:13:44.604Z,4.50
2023-01-13T22:16:12.618Z,4.60
2023-01-13T22:18:40.521Z,4.40
2023-01-13T22:21:08.495Z,4.40
2023-01-13T22:23:36.283Z,4.30
2023-01-13T22:26:14.201Z,4.20
2023-01-13T22:28:46.125Z,4.20
2023-01-13T22:31:16.199Z,4.30
2023-01-13T22:33:54.431Z,4.30
2023-01-13T22:36:23.980Z,4.30
2023-01-13T22:38:55.365Z,4.20
2023-01-13T22:41:23.624Z,4.20
2023-01-13T22:43:52.784Z,4.10
2023-01-13T22:46:20.892Z,4.10
2023-01-13T22:48:51.754Z,4.10
2023-01-13T22:51:19.583Z,4.10
2023-01-13T22:53:47.427Z,4.10
2023-01-13T22:56:18.318Z,4.10
2023-01-13T22:58:46.192Z,4.00
2023-01-13T23:01:16.889Z,4.10
2023-01-13T23:03:46.288Z,4.10
2023-01-13T23:06:14.149Z,4.10
2023-01-13T23:08:41.973Z,4.30
2023-01-13T23:11:11.586Z,4.30
2023-01-13T23:13:42.116Z,4.30
2023-01-13T23:16:11.850Z,4.40
2023-01-13T23:18:42.466Z,4.40
2023-01-13T23:21:13.802Z,4.50
2023-01-13T23:23:41.632Z,4.50
2023-01-13T23:26:11.315Z,4.60
2023-01-13T23:28:40.129Z,4.50
2023-01-13T23:31:08.573Z,4.50
2023-01-13T23:33:37.642Z,4.60
2023-01-13T23:36:09.145Z,4.60
2023-01-13T23:38:36.911Z,4.60
2023-01-13T23:41:07.108Z,4.50
2023-01-13T23:43:34.996Z,4.60
2023-01-13T23:46:04.125Z,4.70
2023-01-13T23:48:33.252Z,4.60
2023-01-13T23:51:02.366Z,4.70
2023-01-13T23:53:39.966Z,4.60
2023-01-13T23:56:11.523Z,4.70
2023-01-13T23:58:39.307Z,4.80
